Strona główna
METAR-TAF:

METAR-TAF

Lotnisko :

Ashtabula County Airport

Ashtabula, Ohio, Stany Zjednoczone

Szerokość geograficzna: 41-46-46N, Długość geograficzna: 080-41-48W, wysokość: 281 m

Aktualna obserwacja pogody

Raport powstał 32 minut temu, godzina 15:53 UTC
Wiatr 11 kt od zachód w porywach dochodzący do 17 kt
Temperatura 30°C
Wilgotność 79%
Ciśnienie 1013 hPa
Widzialność: 16.1 km
Rozproszone chmury na wysokości 2000 ft
Przerywane chmury na wysokości 2800 ft
Zachmurzenie całkowite na wysokości 3400 ft

METAR: KHZY 191553Z AUTO 26011G17KT 10SM SCT020 BKN028 OVC034 30/26 A2992 RMK AO2 SLP123 T03000261

czas: 12:25 (16:25 UTC)


TAF: brakujący

Obserwacja i prognoza pogody dla ponad 4000 lotnisk (raport METAR i TAF).

Dostępne stacje oznaczono żółtymi i czerwonymi punktami na mapie.

Najedź kursorem aby zobaczyć nazwę stacji.

Kliknij aby zobaczyć obserwacje i prognozy pogody.

Aby zmienić mapę: kliknij na zielony przycisk z czarnym krzyżykiem, aby powiększyć; na zielony przycisk z myślnikiem, aby pomniejszyć; na zielone strzałki, aby przejść do map sąsiednich.


METAR-TAF: